Terminal Aerodrome Forecast
Issued by NWS

Home | Current Version | Previous Version | Text Only | Print | Product List | Glossary On
Versions: 1 2 3 4 5 6 7 8 9 10 11 12 13 14 15 16 17
564
FTUS45 KTFX 232338
TAFHVR
TAF
KHVR 232338Z 2400/2424 30012KT P6SM VCSH SCT030 BKN050
     FM240400 25010KT P6SM SCT040 BKN070
     FM241700 25008KT P6SM VCSH SCT020 BKN045=

USA.gov is the U.S. government's official web portal to all federal, state and local government web resources and services.